Terminal Aerodrome Forecast
Issued by NWS

Home | Current Version | Previous Version | Text Only | Print | Product List | Glossary On
Versions: 1 2 3 4 5 6 7 8 9 10 11 12 13 14 15 16 17 18 19 20 21
000
FTUS44 KLIX 071120
TAFHDC
TAF
KHDC 071120Z 0712/0812 04003KT P6SM OVC007
     FM071500 VRB03KT P6SM BKN015
     FM071700 VRB03KT P6SM BKN020
     FM072100 VRB03KT P6SM BKN030
     FM080300 06004KT P6SM BKN015
     FM080600 VRB03KT P6SM OVC005=

USA.gov is the U.S. government's official web portal to all federal, state and local government web resources and services.